sensor_id;sensor_type;location;lat;lon;timestamp;pressure;altitude;pressure_sealevel;temperature;humidity
77881;BME280;67077;50.298;18.996;2023-08-06T00:01:52;96757.65;;;17.41;100.00
77881;BME280;67077;50.298;18.996;2023-08-06T00:04:19;96736.94;;;17.41;100.00
77881;BME280;67077;50.298;18.996;2023-08-06T00:06:45;96721.41;;;17.43;100.00
77881;BME280;67077;50.298;18.996;2023-08-06T00:09:12;96705.73;;;17.43;100.00
77881;BME280;67077;50.298;18.996;2023-08-06T00:11:39;96695.00;;;17.44;100.00
77881;BME280;67077;50.298;18.996;2023-08-06T00:14:08;96710.45;;;17.44;100.00
77881;BME280;67077;50.298;18.996;2023-08-06T00:16:34;96701.70;;;17.45;100.00
77881;BME280;67077;50.298;18.996;2023-08-06T00:19:01;96668.88;;;17.44;100.00
77881;BME280;67077;50.298;18.996;2023-08-06T00:21:27;96660.02;;;17.45;100.00
77881;BME280;67077;50.298;18.996;2023-08-06T00:23:56;96647.82;;;17.45;100.00
77881;BME280;67077;50.298;18.996;2023-08-06T00:26:24;96631.55;;;17.46;100.00
77881;BME280;67077;50.298;18.996;2023-08-06T00:28:51;96612.77;;;17.48;100.00
77881;BME280;67077;50.298;18.996;2023-08-06T00:31:18;96599.73;;;17.48;100.00
77881;BME280;67077;50.298;18.996;2023-08-06T00:33:44;96584.33;;;17.47;100.00
77881;BME280;67077;50.298;18.996;2023-08-06T00:36:11;96566.63;;;17.47;100.00
77881;BME280;67077;50.298;18.996;2023-08-06T00:38:37;96548.88;;;17.46;100.00
77881;BME280;67077;50.298;18.996;2023-08-06T00:41:04;96521.56;;;17.46;100.00
77881;BME280;67077;50.298;18.996;2023-08-06T00:43:30;96492.80;;;17.44;100.00
77881;BME280;67077;50.298;18.996;2023-08-06T00:45:57;96488.95;;;17.42;100.00
77881;BME280;67077;50.298;18.996;2023-08-06T00:48:24;96477.20;;;17.40;100.00
77881;BME280;67077;50.298;18.996;2023-08-06T00:50:51;96494.78;;;17.38;100.00
77881;BME280;67077;50.298;18.996;2023-08-06T00:53:17;96566.08;;;17.37;100.00
77881;BME280;67077;50.298;18.996;2023-08-06T00:55:45;96610.44;;;17.38;100.00
77881;BME280;67077;50.298;18.996;2023-08-06T00:58:14;96553.35;;;17.37;100.00
77881;BME280;67077;50.298;18.996;2023-08-06T01:00:41;96512.73;;;17.36;100.00
77881;BME280;67077;50.298;18.996;2023-08-06T01:03:08;96503.38;;;17.37;100.00
77881;BME280;67077;50.298;18.996;2023-08-06T01:05:35;96505.91;;;17.36;100.00
77881;BME280;67077;50.298;18.996;2023-08-06T01:11:19;96497.90;;;17.35;100.00
77881;BME280;67077;50.298;18.996;2023-08-06T01:13:50;96502.59;;;17.35;100.00
77881;BME280;67077;50.298;18.996;2023-08-06T01:16:20;96506.92;;;17.34;100.00
77881;BME280;67077;50.298;18.996;2023-08-06T01:18:47;96504.27;;;17.32;100.00
77881;BME280;67077;50.298;18.996;2023-08-06T01:21:16;96507.58;;;17.32;100.00
77881;BME280;67077;50.298;18.996;2023-08-06T01:23:43;96509.88;;;17.31;100.00
77881;BME280;67077;50.298;18.996;2023-08-06T01:31:33;96490.05;;;17.31;100.00
77881;BME280;67077;50.298;18.996;2023-08-06T01:34:03;96480.27;;;17.32;100.00
77881;BME280;67077;50.298;18.996;2023-08-06T01:36:31;96465.80;;;17.34;100.00
77881;BME280;67077;50.298;18.996;2023-08-06T01:38:58;96453.80;;;17.36;100.00
77881;BME280;67077;50.298;18.996;2023-08-06T01:41:25;96440.66;;;17.37;100.00
77881;BME280;67077;50.298;18.996;2023-08-06T01:43:52;96425.57;;;17.38;100.00
77881;BME280;67077;50.298;18.996;2023-08-06T01:46:18;96422.75;;;17.39;100.00
77881;BME280;67077;50.298;18.996;2023-08-06T01:48:45;96420.09;;;17.41;100.00
77881;BME280;67077;50.298;18.996;2023-08-06T01:51:11;96411.45;;;17.44;100.00
77881;BME280;67077;50.298;18.996;2023-08-06T01:53:38;96431.63;;;17.47;100.00
77881;BME280;67077;50.298;18.996;2023-08-06T01:56:05;96443.02;;;17.48;100.00
77881;BME280;67077;50.298;18.996;2023-08-06T01:58:31;96447.42;;;17.50;100.00
77881;BME280;67077;50.298;18.996;2023-08-06T02:00:58;96448.55;;;17.50;100.00
77881;BME280;67077;50.298;18.996;2023-08-06T02:03:24;96460.99;;;17.51;100.00
77881;BME280;67077;50.298;18.996;2023-08-06T02:05:51;96455.86;;;17.53;100.00
77881;BME280;67077;50.298;18.996;2023-08-06T02:08:17;96447.36;;;17.54;100.00
77881;BME280;67077;50.298;18.996;2023-08-06T02:10:44;96449.52;;;17.55;100.00
77881;BME280;67077;50.298;18.996;2023-08-06T02:13:11;96444.59;;;17.57;100.00
77881;BME280;67077;50.298;18.996;2023-08-06T02:15:45;96444.54;;;17.59;100.00
77881;BME280;67077;50.298;18.996;2023-08-06T02:18:16;96446.13;;;17.61;100.00
77881;BME280;67077;50.298;18.996;2023-08-06T02:20:43;96446.77;;;17.63;100.00
77881;BME280;67077;50.298;18.996;2023-08-06T02:23:09;96438.77;;;17.64;100.00
77881;BME280;67077;50.298;18.996;2023-08-06T02:25:36;96430.55;;;17.65;100.00
77881;BME280;67077;50.298;18.996;2023-08-06T02:28:03;96432.77;;;17.66;100.00
77881;BME280;67077;50.298;18.996;2023-08-06T02:30:29;96437.35;;;17.66;100.00
77881;BME280;67077;50.298;18.996;2023-08-06T02:32:56;96436.34;;;17.69;100.00
77881;BME280;67077;50.298;18.996;2023-08-06T02:35:23;96437.67;;;17.70;100.00
77881;BME280;67077;50.298;18.996;2023-08-06T02:37:50;96439.23;;;17.72;100.00
77881;BME280;67077;50.298;18.996;2023-08-06T02:40:16;96441.10;;;17.73;100.00
77881;BME280;67077;50.298;18.996;2023-08-06T02:42:43;96440.61;;;17.76;100.00
77881;BME280;67077;50.298;18.996;2023-08-06T02:45:10;96430.55;;;17.77;100.00
77881;BME280;67077;50.298;18.996;2023-08-06T02:47:36;96428.30;;;17.77;100.00
77881;BME280;67077;50.298;18.996;2023-08-06T02:50:03;96416.88;;;17.77;100.00
77881;BME280;67077;50.298;18.996;2023-08-06T02:52:30;96410.33;;;17.77;100.00
77881;BME280;67077;50.298;18.996;2023-08-06T02:54:56;96406.34;;;17.76;100.00
77881;BME280;67077;50.298;18.996;2023-08-06T02:57:26;96410.58;;;17.74;100.00
77881;BME280;67077;50.298;18.996;2023-08-06T02:59:52;96403.94;;;17.76;100.00
77881;BME280;67077;50.298;18.996;2023-08-06T03:02:19;96406.71;;;17.77;100.00
77881;BME280;67077;50.298;18.996;2023-08-06T03:04:45;96400.56;;;17.78;100.00
77881;BME280;67077;50.298;18.996;2023-08-06T03:07:12;96396.65;;;17.78;100.00
77881;BME280;67077;50.298;18.996;2023-08-06T03:09:39;96390.80;;;17.78;100.00
77881;BME280;67077;50.298;18.996;2023-08-06T03:12:05;96395.36;;;17.79;100.00
77881;BME280;67077;50.298;18.996;2023-08-06T03:14:32;96392.83;;;17.78;100.00
77881;BME280;67077;50.298;18.996;2023-08-06T03:16:59;96395.71;;;17.78;100.00
77881;BME280;67077;50.298;18.996;2023-08-06T03:19:25;96394.78;;;17.78;100.00
77881;BME280;67077;50.298;18.996;2023-08-06T03:21:52;96387.88;;;17.79;100.00
77881;BME280;67077;50.298;18.996;2023-08-06T03:24:19;96384.49;;;17.78;100.00
77881;BME280;67077;50.298;18.996;2023-08-06T03:26:45;96379.13;;;17.79;100.00
77881;BME280;67077;50.298;18.996;2023-08-06T03:29:12;96376.95;;;17.81;100.00
77881;BME280;67077;50.298;18.996;2023-08-06T03:31:38;96373.17;;;17.81;100.00
77881;BME280;67077;50.298;18.996;2023-08-06T03:34:05;96371.34;;;17.82;100.00
77881;BME280;67077;50.298;18.996;2023-08-06T03:36:32;96376.66;;;17.84;100.00
77881;BME280;67077;50.298;18.996;2023-08-06T03:38:59;96370.49;;;17.85;100.00
77881;BME280;67077;50.298;18.996;2023-08-06T03:41:26;96365.80;;;17.87;100.00
77881;BME280;67077;50.298;18.996;2023-08-06T03:43:52;96363.21;;;17.88;100.00
77881;BME280;67077;50.298;18.996;2023-08-06T03:46:19;96360.55;;;17.89;100.00
77881;BME280;67077;50.298;18.996;2023-08-06T03:48:45;96357.09;;;17.91;100.00
77881;BME280;67077;50.298;18.996;2023-08-06T03:51:12;96354.09;;;17.94;100.00
77881;BME280;67077;50.298;18.996;2023-08-06T03:53:39;96355.48;;;17.97;100.00
77881;BME280;67077;50.298;18.996;2023-08-06T03:56:05;96346.59;;;17.99;100.00
77881;BME280;67077;50.298;18.996;2023-08-06T03:58:32;96341.38;;;17.99;100.00
77881;BME280;67077;50.298;18.996;2023-08-06T04:01:02;96344.84;;;18.01;100.00
77881;BME280;67077;50.298;18.996;2023-08-06T04:03:29;96346.86;;;18.05;100.00
77881;BME280;67077;50.298;18.996;2023-08-06T04:05:56;96345.27;;;18.09;100.00
77881;BME280;67077;50.298;18.996;2023-08-06T04:08:22;96348.15;;;18.11;100.00
77881;BME280;67077;50.298;18.996;2023-08-06T04:10:51;96350.04;;;18.14;100.00
77881;BME280;67077;50.298;18.996;2023-08-06T04:13:17;96352.20;;;18.16;100.00
77881;BME280;67077;50.298;18.996;2023-08-06T04:15:44;96346.66;;;18.16;100.00
77881;BME280;67077;50.298;18.996;2023-08-06T04:18:11;96342.97;;;18.17;100.00
77881;BME280;67077;50.298;18.996;2023-08-06T04:20:45;96345.84;;;18.18;100.00
77881;BME280;67077;50.298;18.996;2023-08-06T04:23:12;96338.34;;;18.18;100.00
77881;BME280;67077;50.298;18.996;2023-08-06T04:25:39;96332.55;;;18.18;100.00
77881;BME280;67077;50.298;18.996;2023-08-06T04:28:06;96336.48;;;18.18;100.00
77881;BME280;67077;50.298;18.996;2023-08-06T04:30:34;96344.45;;;18.19;100.00
77881;BME280;67077;50.298;18.996;2023-08-06T04:33:00;96352.02;;;18.18;100.00
77881;BME280;67077;50.298;18.996;2023-08-06T04:35:27;96354.30;;;18.18;100.00
77881;BME280;67077;50.298;18.996;2023-08-06T04:37:54;96346.29;;;18.18;100.00
77881;BME280;67077;50.298;18.996;2023-08-06T04:40:20;96331.10;;;18.17;100.00
77881;BME280;67077;50.298;18.996;2023-08-06T04:42:47;96329.79;;;18.19;100.00
77881;BME280;67077;50.298;18.996;2023-08-06T04:45:13;96329.67;;;18.19;100.00
77881;BME280;67077;50.298;18.996;2023-08-06T04:47:40;96326.66;;;18.19;100.00
77881;BME280;67077;50.298;18.996;2023-08-06T04:50:07;96319.62;;;18.19;100.00
77881;BME280;67077;50.298;18.996;2023-08-06T04:52:33;96321.97;;;18.22;100.00
77881;BME280;67077;50.298;18.996;2023-08-06T04:55:00;96321.48;;;18.25;100.00
77881;BME280;67077;50.298;18.996;2023-08-06T04:57:26;96315.77;;;18.26;100.00
77881;BME280;67077;50.298;18.996;2023-08-06T04:59:53;96309.30;;;18.28;100.00
77881;BME280;67077;50.298;18.996;2023-08-06T05:02:20;96308.14;;;18.28;100.00
77881;BME280;67077;50.298;18.996;2023-08-06T05:04:46;96305.09;;;18.28;100.00
77881;BME280;67077;50.298;18.996;2023-08-06T05:07:13;96301.64;;;18.28;100.00
77881;BME280;67077;50.298;18.996;2023-08-06T05:09:39;96299.73;;;18.30;100.00
77881;BME280;67077;50.298;18.996;2023-08-06T05:12:06;96306.84;;;18.32;100.00
77881;BME280;67077;50.298;18.996;2023-08-06T05:14:33;96306.16;;;18.30;100.00
77881;BME280;67077;50.298;18.996;2023-08-06T05:16:59;96297.64;;;18.30;100.00
77881;BME280;67077;50.298;18.996;2023-08-06T05:19:28;96293.61;;;18.29;100.00
77881;BME280;67077;50.298;18.996;2023-08-06T05:21:55;96286.71;;;18.28;100.00
77881;BME280;67077;50.298;18.996;2023-08-06T05:24:22;96284.04;;;18.25;100.00
77881;BME280;67077;50.298;18.996;2023-08-06T05:26:48;96282.02;;;18.22;100.00
77881;BME280;67077;50.298;18.996;2023-08-06T05:29:16;96280.41;;;18.21;100.00
77881;BME280;67077;50.298;18.996;2023-08-06T05:31:43;96279.18;;;18.20;100.00
77881;BME280;67077;50.298;18.996;2023-08-06T05:34:10;96276.13;;;18.19;100.00
77881;BME280;67077;50.298;18.996;2023-08-06T05:36:37;96269.89;;;18.20;100.00
77881;BME280;67077;50.298;18.996;2023-08-06T05:39:03;96264.21;;;18.19;100.00
77881;BME280;67077;50.298;18.996;2023-08-06T05:41:30;96257.04;;;18.17;100.00
77881;BME280;67077;50.298;18.996;2023-08-06T05:43:57;96262.31;;;18.16;100.00
77881;BME280;67077;50.298;18.996;2023-08-06T05:46:23;96266.36;;;18.14;100.00
77881;BME280;67077;50.298;18.996;2023-08-06T05:48:50;96266.64;;;18.12;100.00
77881;BME280;67077;50.298;18.996;2023-08-06T05:51:18;96262.68;;;18.08;100.00
77881;BME280;67077;50.298;18.996;2023-08-06T05:53:46;96260.96;;;17.98;100.00
77881;BME280;67077;50.298;18.996;2023-08-06T05:56:15;96254.23;;;17.83;100.00
77881;BME280;67077;50.298;18.996;2023-08-06T05:58:42;96251.86;;;17.69;100.00
77881;BME280;67077;50.298;18.996;2023-08-06T06:01:09;96244.92;;;17.57;99.98
77881;BME280;67077;50.298;18.996;2023-08-06T06:03:35;96237.40;;;17.45;99.49
77881;BME280;67077;50.298;18.996;2023-08-06T06:06:02;96239.42;;;17.30;99.11
77881;BME280;67077;50.298;18.996;2023-08-06T06:08:29;96243.38;;;17.16;98.64
77881;BME280;67077;50.298;18.996;2023-08-06T06:10:55;96236.56;;;17.00;98.19
77881;BME280;67077;50.298;18.996;2023-08-06T06:13:22;96231.45;;;16.87;98.14
77881;BME280;67077;50.298;18.996;2023-08-06T06:15:48;96229.95;;;16.74;98.18
77881;BME280;67077;50.298;18.996;2023-08-06T06:18:15;96229.08;;;16.65;98.57
77881;BME280;67077;50.298;18.996;2023-08-06T06:20:41;96225.64;;;16.57;98.80
77881;BME280;67077;50.298;18.996;2023-08-06T06:23:08;96218.59;;;16.51;99.21
77881;BME280;67077;50.298;18.996;2023-08-06T06:25:35;96211.66;;;16.44;99.42
77881;BME280;67077;50.298;18.996;2023-08-06T06:28:02;96210.56;;;16.34;99.61
77881;BME280;67077;50.298;18.996;2023-08-06T06:30:29;96215.80;;;16.29;99.85
77881;BME280;67077;50.298;18.996;2023-08-06T06:32:56;96208.39;;;16.24;99.98
77881;BME280;67077;50.298;18.996;2023-08-06T06:35:22;96191.91;;;16.15;100.00
77881;BME280;67077;50.298;18.996;2023-08-06T06:37:49;96183.94;;;16.03;100.00
77881;BME280;67077;50.298;18.996;2023-08-06T06:40:16;96191.59;;;15.93;100.00
77881;BME280;67077;50.298;18.996;2023-08-06T06:42:43;96201.23;;;15.84;100.00
77881;BME280;67077;50.298;18.996;2023-08-06T06:45:10;96209.84;;;15.77;100.00
77881;BME280;67077;50.298;18.996;2023-08-06T06:47:36;96179.14;;;15.70;100.00
77881;BME280;67077;50.298;18.996;2023-08-06T06:50:03;96170.39;;;15.62;100.00
77881;BME280;67077;50.298;18.996;2023-08-06T06:52:30;96182.73;;;15.52;100.00
77881;BME280;67077;50.298;18.996;2023-08-06T06:54:57;96193.63;;;15.41;100.00
77881;BME280;67077;50.298;18.996;2023-08-06T06:57:23;96181.02;;;15.32;100.00
77881;BME280;67077;50.298;18.996;2023-08-06T06:59:50;96167.57;;;15.25;100.00
77881;BME280;67077;50.298;18.996;2023-08-06T07:02:16;96157.94;;;15.18;100.00
77881;BME280;67077;50.298;18.996;2023-08-06T07:04:43;96153.52;;;15.11;100.00
77881;BME280;67077;50.298;18.996;2023-08-06T07:07:10;96158.19;;;15.06;100.00
77881;BME280;67077;50.298;18.996;2023-08-06T07:09:36;96151.67;;;15.01;100.00
77881;BME280;67077;50.298;18.996;2023-08-06T07:12:03;96147.58;;;14.94;100.00
77881;BME280;67077;50.298;18.996;2023-08-06T07:14:30;96151.86;;;14.87;100.00
77881;BME280;67077;50.298;18.996;2023-08-06T07:16:56;96158.89;;;14.82;100.00
77881;BME280;67077;50.298;18.996;2023-08-06T07:19:23;96157.81;;;14.77;100.00
77881;BME280;67077;50.298;18.996;2023-08-06T07:21:50;96157.77;;;14.74;100.00
77881;BME280;67077;50.298;18.996;2023-08-06T07:24:17;96167.81;;;14.70;100.00
77881;BME280;67077;50.298;18.996;2023-08-06T07:26:43;96194.79;;;14.65;100.00
77881;BME280;67077;50.298;18.996;2023-08-06T07:29:10;96216.43;;;14.62;100.00
77881;BME280;67077;50.298;18.996;2023-08-06T07:31:36;96239.30;;;14.60;100.00
77881;BME280;67077;50.298;18.996;2023-08-06T07:34:03;96248.80;;;14.55;100.00
77881;BME280;67077;50.298;18.996;2023-08-06T07:36:29;96243.52;;;14.52;100.00
77881;BME280;67077;50.298;18.996;2023-08-06T07:38:57;96229.73;;;14.50;100.00
77881;BME280;67077;50.298;18.996;2023-08-06T07:41:24;96220.46;;;14.47;100.00
77881;BME280;67077;50.298;18.996;2023-08-06T07:43:50;96214.08;;;14.45;100.00
77881;BME280;67077;50.298;18.996;2023-08-06T07:46:17;96216.26;;;14.43;100.00
77881;BME280;67077;50.298;18.996;2023-08-06T07:48:43;96222.88;;;14.43;100.00
77881;BME280;67077;50.298;18.996;2023-08-06T07:51:10;96226.70;;;14.53;100.00
77881;BME280;67077;50.298;18.996;2023-08-06T07:53:37;96214.27;;;14.48;100.00
77881;BME280;67077;50.298;18.996;2023-08-06T07:56:03;96216.88;;;14.41;100.00
77881;BME280;67077;50.298;18.996;2023-08-06T07:58:30;96236.56;;;14.33;100.00
77881;BME280;67077;50.298;18.996;2023-08-06T08:00:58;96249.65;;;14.34;100.00
77881;BME280;67077;50.298;18.996;2023-08-06T08:03:25;96261.17;;;14.30;100.00
77881;BME280;67077;50.298;18.996;2023-08-06T08:05:55;96261.94;;;14.24;100.00
77881;BME280;67077;50.298;18.996;2023-08-06T08:08:24;96250.20;;;14.18;100.00
77881;BME280;67077;50.298;18.996;2023-08-06T08:10:51;96230.16;;;14.12;100.00
77881;BME280;67077;50.298;18.996;2023-08-06T08:13:18;96213.05;;;14.05;100.00
77881;BME280;67077;50.298;18.996;2023-08-06T08:15:45;96207.64;;;13.99;100.00
77881;BME280;67077;50.298;18.996;2023-08-06T08:18:11;96217.40;;;13.95;100.00
77881;BME280;67077;50.298;18.996;2023-08-06T08:20:38;96228.87;;;13.94;100.00
77881;BME280;67077;50.298;18.996;2023-08-06T08:23:05;96230.21;;;13.92;100.00
77881;BME280;67077;50.298;18.996;2023-08-06T08:25:33;96228.56;;;13.91;100.00
77881;BME280;67077;50.298;18.996;2023-08-06T08:28:01;96222.09;;;13.90;100.00
77881;BME280;67077;50.298;18.996;2023-08-06T08:30:28;96220.23;;;13.92;100.00
77881;BME280;67077;50.298;18.996;2023-08-06T08:32:55;96215.88;;;13.94;100.00
77881;BME280;67077;50.298;18.996;2023-08-06T08:35:23;96212.16;;;13.97;100.00
77881;BME280;67077;50.298;18.996;2023-08-06T08:37:50;96212.08;;;13.99;100.00
77881;BME280;67077;50.298;18.996;2023-08-06T08:40:17;96213.36;;;14.01;100.00
77881;BME280;67077;50.298;18.996;2023-08-06T08:42:44;96208.45;;;14.03;100.00
77881;BME280;67077;50.298;18.996;2023-08-06T08:45:13;96205.95;;;14.04;100.00
77881;BME280;67077;50.298;18.996;2023-08-06T08:47:42;96213.70;;;14.05;100.00
77881;BME280;67077;50.298;18.996;2023-08-06T08:50:10;96223.80;;;14.04;100.00
77881;BME280;67077;50.298;18.996;2023-08-06T08:52:42;96232.49;;;14.05;100.00
77881;BME280;67077;50.298;18.996;2023-08-06T08:55:12;96226.16;;;14.08;100.00
77881;BME280;67077;50.298;18.996;2023-08-06T08:57:40;96216.89;;;14.10;100.00
77881;BME280;67077;50.298;18.996;2023-08-06T09:00:07;96209.89;;;14.13;100.00
77881;BME280;67077;50.298;18.996;2023-08-06T09:02:34;96218.30;;;14.13;100.00
77881;BME280;67077;50.298;18.996;2023-08-06T09:05:04;96221.69;;;14.17;100.00
77881;BME280;67077;50.298;18.996;2023-08-06T09:07:48;96224.05;;;14.19;100.00
77881;BME280;67077;50.298;18.996;2023-08-06T09:10:16;96222.85;;;14.19;100.00
77881;BME280;67077;50.298;18.996;2023-08-06T09:12:45;96219.08;;;14.17;100.00
77881;BME280;67077;50.298;18.996;2023-08-06T09:15:12;96216.59;;;14.16;100.00
77881;BME280;67077;50.298;18.996;2023-08-06T09:17:39;96220.14;;;14.13;100.00
77881;BME280;67077;50.298;18.996;2023-08-06T09:20:12;96217.67;;;14.11;100.00
77881;BME280;67077;50.298;18.996;2023-08-06T09:22:40;96218.55;;;14.11;100.00
77881;BME280;67077;50.298;18.996;2023-08-06T09:25:08;96210.36;;;14.10;100.00
77881;BME280;67077;50.298;18.996;2023-08-06T09:27:38;96202.59;;;14.06;100.00
77881;BME280;67077;50.298;18.996;2023-08-06T09:30:06;96197.16;;;14.03;100.00
77881;BME280;67077;50.298;18.996;2023-08-06T09:32:46;96188.66;;;14.00;100.00
77881;BME280;67077;50.298;18.996;2023-08-06T09:35:19;96172.88;;;13.98;100.00
77881;BME280;67077;50.298;18.996;2023-08-06T09:37:46;96177.06;;;13.98;100.00
77881;BME280;67077;50.298;18.996;2023-08-06T09:40:29;96190.46;;;13.99;100.00
77881;BME280;67077;50.298;18.996;2023-08-06T09:42:58;96192.84;;;14.00;100.00
77881;BME280;67077;50.298;18.996;2023-08-06T09:45:34;96187.38;;;13.98;100.00
77881;BME280;67077;50.298;18.996;2023-08-06T09:48:06;96194.71;;;13.98;100.00
77881;BME280;67077;50.298;18.996;2023-08-06T09:50:35;96198.52;;;13.97;100.00
77881;BME280;67077;50.298;18.996;2023-08-06T09:53:07;96200.52;;;13.98;100.00
77881;BME280;67077;50.298;18.996;2023-08-06T09:55:35;96195.45;;;14.00;100.00
77881;BME280;67077;50.298;18.996;2023-08-06T09:58:01;96197.85;;;14.04;100.00
77881;BME280;67077;50.298;18.996;2023-08-06T10:00:29;96201.12;;;14.07;100.00
77881;BME280;67077;50.298;18.996;2023-08-06T10:03:00;96199.70;;;14.11;100.00
77881;BME280;67077;50.298;18.996;2023-08-06T10:05:27;96201.14;;;14.17;100.00
77881;BME280;67077;50.298;18.996;2023-08-06T10:07:55;96204.31;;;14.19;100.00
77881;BME280;67077;50.298;18.996;2023-08-06T10:10:24;96214.98;;;14.22;100.00
77881;BME280;67077;50.298;18.996;2023-08-06T10:12:55;96221.17;;;14.23;100.00
77881;BME280;67077;50.298;18.996;2023-08-06T10:15:26;96218.35;;;14.24;100.00
77881;BME280;67077;50.298;18.996;2023-08-06T10:18:00;96219.10;;;14.25;100.00
77881;BME280;67077;50.298;18.996;2023-08-06T10:20:33;96216.55;;;14.29;100.00
77881;BME280;67077;50.298;18.996;2023-08-06T10:23:04;96218.71;;;14.30;100.00
77881;BME280;67077;50.298;18.996;2023-08-06T10:25:33;96226.96;;;14.32;100.00
77881;BME280;67077;50.298;18.996;2023-08-06T10:28:00;96234.23;;;14.32;100.00
77881;BME280;67077;50.298;18.996;2023-08-06T10:30:29;96239.80;;;14.31;100.00
77881;BME280;67077;50.298;18.996;2023-08-06T10:33:01;96242.94;;;14.28;100.00
77881;BME280;67077;50.298;18.996;2023-08-06T10:35:35;96252.93;;;14.28;100.00
77881;BME280;67077;50.298;18.996;2023-08-06T10:40:42;96247.83;;;14.28;100.00
77881;BME280;67077;50.298;18.996;2023-08-06T10:43:40;96249.14;;;14.28;100.00
77881;BME280;67077;50.298;18.996;2023-08-06T10:46:12;96255.66;;;14.28;100.00
77881;BME280;67077;50.298;18.996;2023-08-06T10:48:48;96251.81;;;14.27;100.00
77881;BME280;67077;50.298;18.996;2023-08-06T10:51:16;96247.73;;;14.26;100.00
77881;BME280;67077;50.298;18.996;2023-08-06T10:53:50;96241.93;;;14.25;100.00
77881;BME280;67077;50.298;18.996;2023-08-06T10:56:29;96244.22;;;14.25;100.00
77881;BME280;67077;50.298;18.996;2023-08-06T10:59:01;96244.11;;;14.24;100.00
77881;BME280;67077;50.298;18.996;2023-08-06T11:01:29;96243.62;;;14.25;100.00
77881;BME280;67077;50.298;18.996;2023-08-06T11:04:02;96252.86;;;14.26;100.00
77881;BME280;67077;50.298;18.996;2023-08-06T11:06:30;96256.67;;;14.25;100.00
77881;BME280;67077;50.298;18.996;2023-08-06T11:08:57;96259.23;;;14.25;100.00
77881;BME280;67077;50.298;18.996;2023-08-06T11:11:24;96256.60;;;14.27;100.00
77881;BME280;67077;50.298;18.996;2023-08-06T11:13:52;96265.86;;;14.29;100.00
77881;BME280;67077;50.298;18.996;2023-08-06T11:16:23;96275.70;;;14.34;100.00
77881;BME280;67077;50.298;18.996;2023-08-06T11:18:53;96277.11;;;14.38;100.00
77881;BME280;67077;50.298;18.996;2023-08-06T11:21:23;96281.02;;;14.43;100.00
77881;BME280;67077;50.298;18.996;2023-08-06T11:23:52;96280.08;;;14.46;100.00
77881;BME280;67077;50.298;18.996;2023-08-06T11:26:20;96278.75;;;14.47;100.00
77881;BME280;67077;50.298;18.996;2023-08-06T11:28:47;96280.83;;;14.46;100.00
77881;BME280;67077;50.298;18.996;2023-08-06T11:31:23;96271.09;;;14.47;100.00
77881;BME280;67077;50.298;18.996;2023-08-06T11:33:54;96270.27;;;14.51;100.00
77881;BME280;67077;50.298;18.996;2023-08-06T11:36:30;96273.32;;;14.56;100.00
77881;BME280;67077;50.298;18.996;2023-08-06T11:39:01;96277.89;;;14.67;100.00
77881;BME280;67077;50.298;18.996;2023-08-06T11:41:29;96273.32;;;14.80;100.00
77881;BME280;67077;50.298;18.996;2023-08-06T11:43:57;96272.52;;;14.88;100.00
77881;BME280;67077;50.298;18.996;2023-08-06T11:46:24;96267.05;;;14.95;100.00
77881;BME280;67077;50.298;18.996;2023-08-06T11:48:52;96268.72;;;15.09;100.00
77881;BME280;67077;50.298;18.996;2023-08-06T11:51:23;96274.72;;;15.16;100.00
77881;BME280;67077;50.298;18.996;2023-08-06T11:53:53;96272.15;;;15.29;100.00
77881;BME280;67077;50.298;18.996;2023-08-06T11:56:21;96274.20;;;15.38;100.00
77881;BME280;67077;50.298;18.996;2023-08-06T11:58:48;96282.06;;;15.33;100.00
77881;BME280;67077;50.298;18.996;2023-08-06T12:01:15;96285.55;;;15.21;99.98
77881;BME280;67077;50.298;18.996;2023-08-06T12:03:42;96279.16;;;15.10;99.90
77881;BME280;67077;50.298;18.996;2023-08-06T12:06:08;96276.86;;;15.04;99.99
77881;BME280;67077;50.298;18.996;2023-08-06T12:08:35;96275.89;;;15.01;100.00
77881;BME280;67077;50.298;18.996;2023-08-06T12:11:02;96287.87;;;15.06;100.00
77881;BME280;67077;50.298;18.996;2023-08-06T12:13:28;96294.16;;;15.07;100.00
77881;BME280;67077;50.298;18.996;2023-08-06T12:15:55;96300.09;;;15.12;100.00
77881;BME280;67077;50.298;18.996;2023-08-06T12:18:23;96303.52;;;15.21;100.00
77881;BME280;67077;50.298;18.996;2023-08-06T12:20:50;96306.05;;;15.26;100.00
77881;BME280;67077;50.298;18.996;2023-08-06T12:23:17;96306.31;;;15.31;100.00
77881;BME280;67077;50.298;18.996;2023-08-06T12:25:44;96308.27;;;15.32;100.00
77881;BME280;67077;50.298;18.996;2023-08-06T12:28:11;96310.09;;;15.29;99.85
77881;BME280;67077;50.298;18.996;2023-08-06T12:30:39;96314.50;;;15.33;99.93
77881;BME280;67077;50.298;18.996;2023-08-06T12:33:08;96318.44;;;15.44;100.00
77881;BME280;67077;50.298;18.996;2023-08-06T12:35:36;96323.58;;;15.55;100.00
77881;BME280;67077;50.298;18.996;2023-08-06T12:38:04;96324.38;;;15.69;99.99
77881;BME280;67077;50.298;18.996;2023-08-06T12:40:31;96327.14;;;15.85;99.93
77881;BME280;67077;50.298;18.996;2023-08-06T12:42:57;96323.61;;;15.91;99.38
77881;BME280;67077;50.298;18.996;2023-08-06T12:45:25;96330.51;;;15.94;99.11
77881;BME280;67077;50.298;18.996;2023-08-06T12:47:52;96333.08;;;16.03;99.50
77881;BME280;67077;50.298;18.996;2023-08-06T12:50:18;96336.58;;;16.16;99.28
77881;BME280;67077;50.298;18.996;2023-08-06T12:52:45;96340.27;;;16.20;98.57
77881;BME280;67077;50.298;18.996;2023-08-06T12:55:12;96338.13;;;16.26;98.21